San Ramon, California
Current Conditions -  °F | °C
As of 9:53 AM on Friday 21 Nov 2014 (Local Time) from KLVK Reporting Station
Overcast Overcast  
Wind Chill: 56°   Ceiling: 1800
Heat Index: 56°   Visibility: 10mi
Dew Point: 47°   Wind: 0mph
Humidity: 72%   Direction: NA
Pressure: 30.12"   Gusts: NA
Location:  37.78°N, 121.96°W
Report Text: KLVK 211753Z 00000KT 10SM OVC018 13/08 A3012 RMK AO2 SLP197 T01330083 10133 20106 51015
Loading
Personal Weather Stations






























Interactive Weather Map New forecast layout! Learn more

10-Day Weather Forecast

Advertisements
Track Severe Weather on mobile